sensor_id;sensor_type;location;lat;lon;timestamp;P1;durP1;ratioP1;P2;durP2;ratioP2
74658;SDS011;63186;51.204;6.536;2023-01-19T00:01:22;17.58;;;9.52;;
74658;SDS011;63186;51.204;6.536;2023-01-19T00:03:48;15.40;;;8.23;;
74658;SDS011;63186;51.204;6.536;2023-01-19T00:06:14;13.70;;;7.95;;
74658;SDS011;63186;51.204;6.536;2023-01-19T00:08:39;12.20;;;6.70;;
74658;SDS011;63186;51.204;6.536;2023-01-19T00:11:05;15.07;;;7.57;;
74658;SDS011;63186;51.204;6.536;2023-01-19T00:13:31;14.43;;;6.85;;
74658;SDS011;63186;51.204;6.536;2023-01-19T00:15:56;18.00;;;7.78;;
74658;SDS011;63186;51.204;6.536;2023-01-19T00:18:22;15.63;;;8.17;;
74658;SDS011;63186;51.204;6.536;2023-01-19T00:20:47;13.05;;;7.32;;
74658;SDS011;63186;51.204;6.536;2023-01-19T00:23:13;8.98;;;4.65;;
74658;SDS011;63186;51.204;6.536;2023-01-19T00:25:40;15.65;;;8.23;;
74658;SDS011;63186;51.204;6.536;2023-01-19T00:28:09;16.98;;;10.15;;
74658;SDS011;63186;51.204;6.536;2023-01-19T00:30:35;15.15;;;7.45;;
74658;SDS011;63186;51.204;6.536;2023-01-19T00:33:01;13.63;;;7.32;;
74658;SDS011;63186;51.204;6.536;2023-01-19T00:35:26;16.90;;;9.07;;
74658;SDS011;63186;51.204;6.536;2023-01-19T00:37:52;11.80;;;6.23;;
74658;SDS011;63186;51.204;6.536;2023-01-19T00:40:17;13.90;;;6.87;;
74658;SDS011;63186;51.204;6.536;2023-01-19T00:42:42;15.93;;;6.72;;
74658;SDS011;63186;51.204;6.536;2023-01-19T00:45:15;16.60;;;7.70;;
74658;SDS011;63186;51.204;6.536;2023-01-19T00:47:43;14.35;;;7.38;;
74658;SDS011;63186;51.204;6.536;2023-01-19T00:50:09;13.18;;;6.95;;
74658;SDS011;63186;51.204;6.536;2023-01-19T00:52:35;10.90;;;5.45;;
74658;SDS011;63186;51.204;6.536;2023-01-19T00:55:01;14.30;;;8.23;;
74658;SDS011;63186;51.204;6.536;2023-01-19T00:57:27;12.38;;;6.40;;
74658;SDS011;63186;51.204;6.536;2023-01-19T00:59:53;13.00;;;7.32;;
74658;SDS011;63186;51.204;6.536;2023-01-19T01:04:43;13.77;;;6.40;;
74658;SDS011;63186;51.204;6.536;2023-01-19T01:07:09;13.77;;;7.27;;
74658;SDS011;63186;51.204;6.536;2023-01-19T01:09:34;15.97;;;8.53;;
74658;SDS011;63186;51.204;6.536;2023-01-19T01:11:59;15.10;;;7.60;;
74658;SDS011;63186;51.204;6.536;2023-01-19T01:14:25;13.48;;;7.45;;
74658;SDS011;63186;51.204;6.536;2023-01-19T01:16:50;15.03;;;7.77;;
74658;SDS011;63186;51.204;6.536;2023-01-19T01:19:15;13.03;;;7.63;;
74658;SDS011;63186;51.204;6.536;2023-01-19T01:21:41;15.00;;;7.83;;
74658;SDS011;63186;51.204;6.536;2023-01-19T01:24:07;16.17;;;8.93;;
74658;SDS011;63186;51.204;6.536;2023-01-19T01:26:33;14.27;;;7.07;;
74658;SDS011;63186;51.204;6.536;2023-01-19T01:28:58;15.00;;;6.50;;
74658;SDS011;63186;51.204;6.536;2023-01-19T01:31:24;14.17;;;7.30;;
74658;SDS011;63186;51.204;6.536;2023-01-19T01:33:49;13.73;;;7.57;;
74658;SDS011;63186;51.204;6.536;2023-01-19T01:36:14;12.37;;;7.00;;
74658;SDS011;63186;51.204;6.536;2023-01-19T01:38:40;11.43;;;6.47;;
74658;SDS011;63186;51.204;6.536;2023-01-19T01:41:06;15.77;;;7.68;;
74658;SDS011;63186;51.204;6.536;2023-01-19T01:43:44;15.30;;;6.97;;
74658;SDS011;63186;51.204;6.536;2023-01-19T01:46:11;19.33;;;7.82;;
74658;SDS011;63186;51.204;6.536;2023-01-19T01:48:39;15.10;;;9.52;;
74658;SDS011;63186;51.204;6.536;2023-01-19T01:51:09;14.40;;;7.15;;
74658;SDS011;63186;51.204;6.536;2023-01-19T01:53:58;13.43;;;7.60;;
74658;SDS011;63186;51.204;6.536;2023-01-19T01:56:37;16.50;;;8.18;;
74658;SDS011;63186;51.204;6.536;2023-01-19T01:59:07;16.67;;;8.88;;
74658;SDS011;63186;51.204;6.536;2023-01-19T02:01:36;15.10;;;7.65;;
74658;SDS011;63186;51.204;6.536;2023-01-19T02:04:20;14.88;;;8.35;;
74658;SDS011;63186;51.204;6.536;2023-01-19T02:06:46;14.93;;;7.93;;
74658;SDS011;63186;51.204;6.536;2023-01-19T02:09:31;13.35;;;7.20;;
74658;SDS011;63186;51.204;6.536;2023-01-19T02:12:18;13.57;;;6.85;;
74658;SDS011;63186;51.204;6.536;2023-01-19T02:15:03;16.70;;;8.50;;
74658;SDS011;63186;51.204;6.536;2023-01-19T02:17:28;13.77;;;7.88;;
74658;SDS011;63186;51.204;6.536;2023-01-19T02:19:53;13.80;;;8.65;;
74658;SDS011;63186;51.204;6.536;2023-01-19T02:22:23;17.50;;;7.82;;
74658;SDS011;63186;51.204;6.536;2023-01-19T02:24:59;15.85;;;6.70;;
74658;SDS011;63186;51.204;6.536;2023-01-19T02:27:27;16.42;;;8.00;;
74658;SDS011;63186;51.204;6.536;2023-01-19T02:29:52;13.73;;;7.80;;
74658;SDS011;63186;51.204;6.536;2023-01-19T02:32:18;13.65;;;6.30;;
74658;SDS011;63186;51.204;6.536;2023-01-19T02:34:44;12.57;;;6.30;;
74658;SDS011;63186;51.204;6.536;2023-01-19T02:37:10;12.95;;;6.63;;
74658;SDS011;63186;51.204;6.536;2023-01-19T02:39:38;14.02;;;6.07;;
74658;SDS011;63186;51.204;6.536;2023-01-19T02:42:17;12.80;;;7.00;;
74658;SDS011;63186;51.204;6.536;2023-01-19T02:44:47;13.73;;;6.53;;
74658;SDS011;63186;51.204;6.536;2023-01-19T02:47:14;11.65;;;6.53;;
74658;SDS011;63186;51.204;6.536;2023-01-19T02:49:40;10.75;;;6.00;;
74658;SDS011;63186;51.204;6.536;2023-01-19T02:52:06;15.70;;;6.73;;
74658;SDS011;63186;51.204;6.536;2023-01-19T02:54:51;13.07;;;5.78;;
74658;SDS011;63186;51.204;6.536;2023-01-19T03:03:10;12.50;;;6.65;;
74658;SDS011;63186;51.204;6.536;2023-01-19T03:06:00;11.02;;;4.97;;
74658;SDS011;63186;51.204;6.536;2023-01-19T03:08:41;11.50;;;5.68;;
74658;SDS011;63186;51.204;6.536;2023-01-19T03:11:11;13.30;;;6.20;;
74658;SDS011;63186;51.204;6.536;2023-01-19T03:18:57;14.50;;;5.57;;
74658;SDS011;63186;51.204;6.536;2023-01-19T03:21:30;8.05;;;4.10;;
74658;SDS011;63186;51.204;6.536;2023-01-19T03:24:00;16.50;;;6.68;;
74658;SDS011;63186;51.204;6.536;2023-01-19T03:26:28;11.90;;;5.72;;
74658;SDS011;63186;51.204;6.536;2023-01-19T03:28:56;11.57;;;6.50;;
74658;SDS011;63186;51.204;6.536;2023-01-19T03:31:24;11.07;;;5.90;;
74658;SDS011;63186;51.204;6.536;2023-01-19T03:33:52;11.75;;;5.30;;
74658;SDS011;63186;51.204;6.536;2023-01-19T03:36:24;14.40;;;5.93;;
74658;SDS011;63186;51.204;6.536;2023-01-19T03:38:57;14.30;;;6.40;;
74658;SDS011;63186;51.204;6.536;2023-01-19T03:41:24;9.65;;;5.05;;
74658;SDS011;63186;51.204;6.536;2023-01-19T03:43:51;9.38;;;5.20;;
74658;SDS011;63186;51.204;6.536;2023-01-19T03:46:19;11.93;;;6.05;;
74658;SDS011;63186;51.204;6.536;2023-01-19T03:48:45;12.13;;;5.07;;
74658;SDS011;63186;51.204;6.536;2023-01-19T03:51:11;12.50;;;6.05;;
74658;SDS011;63186;51.204;6.536;2023-01-19T03:53:38;14.40;;;5.82;;
74658;SDS011;63186;51.204;6.536;2023-01-19T03:56:04;12.70;;;5.55;;
74658;SDS011;63186;51.204;6.536;2023-01-19T03:58:31;9.55;;;4.85;;
74658;SDS011;63186;51.204;6.536;2023-01-19T04:00:56;15.63;;;8.10;;
74658;SDS011;63186;51.204;6.536;2023-01-19T04:03:21;14.75;;;8.07;;
74658;SDS011;63186;51.204;6.536;2023-01-19T04:05:47;23.07;;;7.90;;
74658;SDS011;63186;51.204;6.536;2023-01-19T04:08:12;12.40;;;6.13;;
74658;SDS011;63186;51.204;6.536;2023-01-19T04:10:37;13.33;;;6.30;;
74658;SDS011;63186;51.204;6.536;2023-01-19T04:13:03;9.93;;;4.97;;
74658;SDS011;63186;51.204;6.536;2023-01-19T04:15:29;14.30;;;6.00;;
74658;SDS011;63186;51.204;6.536;2023-01-19T04:17:58;9.98;;;5.10;;
74658;SDS011;63186;51.204;6.536;2023-01-19T04:20:24;19.83;;;7.63;;
74658;SDS011;63186;51.204;6.536;2023-01-19T04:22:57;11.70;;;5.50;;
74658;SDS011;63186;51.204;6.536;2023-01-19T04:25:23;14.48;;;7.22;;
74658;SDS011;63186;51.204;6.536;2023-01-19T04:27:50;11.97;;;5.03;;
74658;SDS011;63186;51.204;6.536;2023-01-19T04:30:16;16.98;;;7.78;;
74658;SDS011;63186;51.204;6.536;2023-01-19T04:32:42;16.20;;;7.55;;
74658;SDS011;63186;51.204;6.536;2023-01-19T04:35:08;15.32;;;7.07;;
74658;SDS011;63186;51.204;6.536;2023-01-19T04:37:33;19.10;;;8.63;;
74658;SDS011;63186;51.204;6.536;2023-01-19T04:39:58;16.27;;;7.43;;
74658;SDS011;63186;51.204;6.536;2023-01-19T04:42:24;16.83;;;8.17;;
74658;SDS011;63186;51.204;6.536;2023-01-19T04:44:49;19.03;;;7.83;;
74658;SDS011;63186;51.204;6.536;2023-01-19T04:47:14;13.47;;;6.17;;
74658;SDS011;63186;51.204;6.536;2023-01-19T04:49:39;15.47;;;7.50;;
74658;SDS011;63186;51.204;6.536;2023-01-19T04:52:05;15.07;;;7.97;;
74658;SDS011;63186;51.204;6.536;2023-01-19T04:54:30;19.35;;;8.52;;
74658;SDS011;63186;51.204;6.536;2023-01-19T04:56:56;16.17;;;8.43;;
74658;SDS011;63186;51.204;6.536;2023-01-19T04:59:22;18.67;;;8.82;;
74658;SDS011;63186;51.204;6.536;2023-01-19T05:01:47;21.27;;;8.60;;
74658;SDS011;63186;51.204;6.536;2023-01-19T05:04:13;18.90;;;9.93;;
74658;SDS011;63186;51.204;6.536;2023-01-19T05:06:38;18.08;;;8.70;;
74658;SDS011;63186;51.204;6.536;2023-01-19T05:09:03;7.97;;;4.00;;
74658;SDS011;63186;51.204;6.536;2023-01-19T05:11:29;17.88;;;8.25;;
74658;SDS011;63186;51.204;6.536;2023-01-19T05:13:54;21.45;;;10.88;;
74658;SDS011;63186;51.204;6.536;2023-01-19T05:16:19;10.43;;;4.87;;
74658;SDS011;63186;51.204;6.536;2023-01-19T05:18:45;12.25;;;6.70;;
74658;SDS011;63186;51.204;6.536;2023-01-19T05:21:10;21.90;;;8.70;;
74658;SDS011;63186;51.204;6.536;2023-01-19T05:23:35;17.05;;;7.28;;
74658;SDS011;63186;51.204;6.536;2023-01-19T05:26:01;17.17;;;8.53;;
74658;SDS011;63186;51.204;6.536;2023-01-19T05:28:28;16.77;;;7.90;;
74658;SDS011;63186;51.204;6.536;2023-01-19T05:30:55;15.02;;;7.50;;
74658;SDS011;63186;51.204;6.536;2023-01-19T05:33:20;19.33;;;9.23;;
74658;SDS011;63186;51.204;6.536;2023-01-19T05:35:50;16.88;;;8.27;;
74658;SDS011;63186;51.204;6.536;2023-01-19T05:38:16;17.20;;;7.15;;
74658;SDS011;63186;51.204;6.536;2023-01-19T05:40:42;15.45;;;7.60;;
74658;SDS011;63186;51.204;6.536;2023-01-19T05:43:07;12.43;;;5.97;;
74658;SDS011;63186;51.204;6.536;2023-01-19T05:45:32;12.87;;;6.83;;
74658;SDS011;63186;51.204;6.536;2023-01-19T05:47:58;17.27;;;9.30;;
74658;SDS011;63186;51.204;6.536;2023-01-19T05:50:23;9.95;;;4.80;;
74658;SDS011;63186;51.204;6.536;2023-01-19T05:52:49;13.90;;;7.75;;
74658;SDS011;63186;51.204;6.536;2023-01-19T05:55:17;11.65;;;6.18;;
74658;SDS011;63186;51.204;6.536;2023-01-19T05:57:42;8.57;;;4.15;;
74658;SDS011;63186;51.204;6.536;2023-01-19T06:00:07;13.43;;;7.33;;
74658;SDS011;63186;51.204;6.536;2023-01-19T06:02:33;13.32;;;5.88;;
74658;SDS011;63186;51.204;6.536;2023-01-19T06:04:59;11.57;;;5.23;;
74658;SDS011;63186;51.204;6.536;2023-01-19T06:07:24;9.30;;;4.10;;
74658;SDS011;63186;51.204;6.536;2023-01-19T06:09:50;10.25;;;5.18;;
74658;SDS011;63186;51.204;6.536;2023-01-19T06:12:15;12.35;;;5.55;;
74658;SDS011;63186;51.204;6.536;2023-01-19T06:14:40;10.30;;;4.80;;
74658;SDS011;63186;51.204;6.536;2023-01-19T06:17:05;5.93;;;3.33;;
74658;SDS011;63186;51.204;6.536;2023-01-19T06:19:31;9.18;;;3.55;;
74658;SDS011;63186;51.204;6.536;2023-01-19T06:21:57;7.47;;;3.88;;
74658;SDS011;63186;51.204;6.536;2023-01-19T06:24:22;10.48;;;4.75;;
74658;SDS011;63186;51.204;6.536;2023-01-19T06:26:49;9.00;;;4.85;;
74658;SDS011;63186;51.204;6.536;2023-01-19T06:29:14;9.07;;;5.00;;
74658;SDS011;63186;51.204;6.536;2023-01-19T06:31:40;10.80;;;5.35;;
74658;SDS011;63186;51.204;6.536;2023-01-19T06:34:05;9.90;;;5.43;;
74658;SDS011;63186;51.204;6.536;2023-01-19T06:36:31;11.93;;;4.93;;
74658;SDS011;63186;51.204;6.536;2023-01-19T06:38:56;14.40;;;8.77;;
74658;SDS011;63186;51.204;6.536;2023-01-19T06:41:21;15.33;;;7.43;;
74658;SDS011;63186;51.204;6.536;2023-01-19T06:43:47;13.30;;;7.90;;
74658;SDS011;63186;51.204;6.536;2023-01-19T06:46:12;10.07;;;4.47;;
74658;SDS011;63186;51.204;6.536;2023-01-19T06:48:37;15.88;;;8.05;;
74658;SDS011;63186;51.204;6.536;2023-01-19T06:51:03;14.68;;;8.05;;
74658;SDS011;63186;51.204;6.536;2023-01-19T06:53:29;15.02;;;8.15;;
74658;SDS011;63186;51.204;6.536;2023-01-19T06:55:59;10.82;;;5.32;;
74658;SDS011;63186;51.204;6.536;2023-01-19T06:58:25;10.98;;;5.35;;
74658;SDS011;63186;51.204;6.536;2023-01-19T07:00:52;14.52;;;7.30;;
74658;SDS011;63186;51.204;6.536;2023-01-19T07:03:19;12.95;;;6.88;;
74658;SDS011;63186;51.204;6.536;2023-01-19T07:05:45;9.73;;;5.43;;
74658;SDS011;63186;51.204;6.536;2023-01-19T07:08:10;11.00;;;5.82;;
74658;SDS011;63186;51.204;6.536;2023-01-19T07:10:36;14.07;;;7.03;;
74658;SDS011;63186;51.204;6.536;2023-01-19T07:13:01;18.40;;;9.80;;
74658;SDS011;63186;51.204;6.536;2023-01-19T07:15:27;13.03;;;5.80;;
74658;SDS011;63186;51.204;6.536;2023-01-19T07:17:52;17.47;;;8.03;;
74658;SDS011;63186;51.204;6.536;2023-01-19T07:20:17;21.20;;;11.37;;
74658;SDS011;63186;51.204;6.536;2023-01-19T07:22:43;16.35;;;10.27;;
74658;SDS011;63186;51.204;6.536;2023-01-19T07:25:12;18.05;;;10.48;;
74658;SDS011;63186;51.204;6.536;2023-01-19T07:27:38;14.88;;;8.50;;
74658;SDS011;63186;51.204;6.536;2023-01-19T07:30:04;18.25;;;9.18;;
74658;SDS011;63186;51.204;6.536;2023-01-19T07:32:30;21.45;;;10.15;;
74658;SDS011;63186;51.204;6.536;2023-01-19T07:34:56;20.13;;;10.68;;
74658;SDS011;63186;51.204;6.536;2023-01-19T07:37:21;20.00;;;9.67;;
74658;SDS011;63186;51.204;6.536;2023-01-19T07:39:46;23.27;;;10.70;;
74658;SDS011;63186;51.204;6.536;2023-01-19T07:42:11;21.65;;;10.10;;
74658;SDS011;63186;51.204;6.536;2023-01-19T07:44:37;19.73;;;9.97;;
74658;SDS011;63186;51.204;6.536;2023-01-19T07:47:02;18.75;;;11.90;;
74658;SDS011;63186;51.204;6.536;2023-01-19T07:51:56;17.60;;;8.10;;
74658;SDS011;63186;51.204;6.536;2023-01-19T07:54:21;15.30;;;7.67;;
74658;SDS011;63186;51.204;6.536;2023-01-19T07:56:47;22.97;;;11.27;;
74658;SDS011;63186;51.204;6.536;2023-01-19T07:59:12;19.47;;;9.80;;
74658;SDS011;63186;51.204;6.536;2023-01-19T08:01:37;8.98;;;4.57;;
74658;SDS011;63186;51.204;6.536;2023-01-19T08:04:03;16.55;;;8.23;;
74658;SDS011;63186;51.204;6.536;2023-01-19T08:06:30;17.15;;;8.18;;
74658;SDS011;63186;51.204;6.536;2023-01-19T08:08:57;20.70;;;10.18;;
74658;SDS011;63186;51.204;6.536;2023-01-19T08:11:23;14.63;;;7.57;;
74658;SDS011;63186;51.204;6.536;2023-01-19T08:13:48;19.93;;;9.70;;
74658;SDS011;63186;51.204;6.536;2023-01-19T08:16:13;20.08;;;10.80;;
74658;SDS011;63186;51.204;6.536;2023-01-19T08:18:39;24.50;;;12.55;;
74658;SDS011;63186;51.204;6.536;2023-01-19T08:21:04;20.03;;;9.50;;
74658;SDS011;63186;51.204;6.536;2023-01-19T08:23:29;20.42;;;11.65;;
74658;SDS011;63186;51.204;6.536;2023-01-19T08:25:55;22.10;;;11.10;;
74658;SDS011;63186;51.204;6.536;2023-01-19T08:28:20;19.38;;;10.00;;
74658;SDS011;63186;51.204;6.536;2023-01-19T08:30:46;20.33;;;9.68;;
74658;SDS011;63186;51.204;6.536;2023-01-19T08:33:18;19.90;;;10.52;;
74658;SDS011;63186;51.204;6.536;2023-01-19T08:35:48;14.35;;;7.72;;
74658;SDS011;63186;51.204;6.536;2023-01-19T08:38:15;17.13;;;7.72;;
74658;SDS011;63186;51.204;6.536;2023-01-19T08:40:41;23.48;;;11.13;;
74658;SDS011;63186;51.204;6.536;2023-01-19T08:43:08;18.80;;;9.80;;
74658;SDS011;63186;51.204;6.536;2023-01-19T08:45:38;16.17;;;8.10;;
74658;SDS011;63186;51.204;6.536;2023-01-19T08:48:06;17.63;;;9.38;;
74658;SDS011;63186;51.204;6.536;2023-01-19T08:50:32;19.63;;;9.50;;
74658;SDS011;63186;51.204;6.536;2023-01-19T08:52:58;18.85;;;11.23;;
74658;SDS011;63186;51.204;6.536;2023-01-19T08:55:25;28.48;;;10.73;;
74658;SDS011;63186;51.204;6.536;2023-01-19T08:57:51;24.17;;;12.38;;
74658;SDS011;63186;51.204;6.536;2023-01-19T09:00:17;20.90;;;10.75;;
74658;SDS011;63186;51.204;6.536;2023-01-19T09:02:44;23.05;;;10.98;;
74658;SDS011;63186;51.204;6.536;2023-01-19T09:05:10;28.67;;;13.77;;
74658;SDS011;63186;51.204;6.536;2023-01-19T09:07:35;20.00;;;9.63;;
74658;SDS011;63186;51.204;6.536;2023-01-19T09:10:02;20.10;;;8.70;;
74658;SDS011;63186;51.204;6.536;2023-01-19T09:12:28;23.23;;;11.57;;
74658;SDS011;63186;51.204;6.536;2023-01-19T09:14:53;30.80;;;15.27;;
74658;SDS011;63186;51.204;6.536;2023-01-19T09:17:18;25.37;;;13.70;;
74658;SDS011;63186;51.204;6.536;2023-01-19T09:19:43;25.10;;;11.20;;
74658;SDS011;63186;51.204;6.536;2023-01-19T09:22:09;26.73;;;12.43;;
74658;SDS011;63186;51.204;6.536;2023-01-19T09:24:34;29.13;;;13.80;;
74658;SDS011;63186;51.204;6.536;2023-01-19T09:27:00;26.77;;;12.95;;
74658;SDS011;63186;51.204;6.536;2023-01-19T09:29:26;28.70;;;13.40;;
74658;SDS011;63186;51.204;6.536;2023-01-19T09:31:51;24.77;;;12.57;;
74658;SDS011;63186;51.204;6.536;2023-01-19T09:34:17;30.97;;;14.63;;
74658;SDS011;63186;51.204;6.536;2023-01-19T09:36:42;29.45;;;12.98;;
74658;SDS011;63186;51.204;6.536;2023-01-19T09:39:07;23.53;;;11.43;;
74658;SDS011;63186;51.204;6.536;2023-01-19T09:41:34;15.93;;;9.77;;
74658;SDS011;63186;51.204;6.536;2023-01-19T09:44:02;30.23;;;13.68;;
74658;SDS011;63186;51.204;6.536;2023-01-19T09:49:14;30.08;;;13.93;;
74658;SDS011;63186;51.204;6.536;2023-01-19T09:51:48;25.20;;;11.75;;
74658;SDS011;63186;51.204;6.536;2023-01-19T09:54:22;24.65;;;11.32;;
74658;SDS011;63186;51.204;6.536;2023-01-19T09:56:51;30.00;;;13.80;;
74658;SDS011;63186;51.204;6.536;2023-01-19T10:04:35;34.33;;;12.65;;
74658;SDS011;63186;51.204;6.536;2023-01-19T10:10:36;15.63;;;6.47;;
74658;SDS011;63186;51.204;6.536;2023-01-19T10:12:54;29.33;;;12.30;;
74658;SDS011;63186;51.204;6.536;2023-01-19T10:15:41;31.73;;;12.82;;
74658;SDS011;63186;51.204;6.536;2023-01-19T10:20:49;26.27;;;11.23;;
74658;SDS011;63186;51.204;6.536;2023-01-19T10:26:14;26.63;;;12.27;;
74658;SDS011;63186;51.204;6.536;2023-01-19T10:28:47;23.38;;;11.13;;
74658;SDS011;63186;51.204;6.536;2023-01-19T10:31:16;27.48;;;12.30;;
74658;SDS011;63186;51.204;6.536;2023-01-19T10:33:44;19.38;;;7.82;;
74658;SDS011;63186;51.204;6.536;2023-01-19T10:36:18;30.13;;;13.70;;
74658;SDS011;63186;51.204;6.536;2023-01-19T10:38:46;28.90;;;12.82;;
74658;SDS011;63186;51.204;6.536;2023-01-19T10:41:17;22.95;;;9.77;;
74658;SDS011;63186;51.204;6.536;2023-01-19T10:43:47;23.02;;;12.43;;
74658;SDS011;63186;51.204;6.536;2023-01-19T10:46:16;21.88;;;10.55;;
74658;SDS011;63186;51.204;6.536;2023-01-19T10:48:46;31.95;;;12.75;;
74658;SDS011;63186;51.204;6.536;2023-01-19T10:51:13;22.40;;;10.82;;
74658;SDS011;63186;51.204;6.536;2023-01-19T10:53:39;28.15;;;13.23;;
74658;SDS011;63186;51.204;6.536;2023-01-19T10:56:19;37.63;;;15.85;;
74658;SDS011;63186;51.204;6.536;2023-01-19T10:58:46;29.48;;;11.75;;
74658;SDS011;63186;51.204;6.536;2023-01-19T11:01:19;23.83;;;10.63;;
74658;SDS011;63186;51.204;6.536;2023-01-19T11:03:49;28.45;;;10.38;;
74658;SDS011;63186;51.204;6.536;2023-01-19T11:09:08;26.42;;;11.50;;
74658;SDS011;63186;51.204;6.536;2023-01-19T11:11:43;23.58;;;12.25;;
74658;SDS011;63186;51.204;6.536;2023-01-19T11:14:11;17.73;;;6.97;;
74658;SDS011;63186;51.204;6.536;2023-01-19T11:16:38;33.35;;;13.25;;
74658;SDS011;63186;51.204;6.536;2023-01-19T11:19:05;28.65;;;14.27;;
74658;SDS011;63186;51.204;6.536;2023-01-19T11:21:39;30.92;;;12.07;;
74658;SDS011;63186;51.204;6.536;2023-01-19T11:24:04;25.25;;;12.43;;
74658;SDS011;63186;51.204;6.536;2023-01-19T11:29:15;27.23;;;12.63;;
74658;SDS011;63186;51.204;6.536;2023-01-19T11:31:46;22.45;;;11.35;;
74658;SDS011;63186;51.204;6.536;2023-01-19T11:39:48;23.50;;;12.02;;
74658;SDS011;63186;51.204;6.536;2023-01-19T11:42:16;19.33;;;8.63;;
74658;SDS011;63186;51.204;6.536;2023-01-19T11:44:47;22.15;;;10.73;;
74658;SDS011;63186;51.204;6.536;2023-01-19T11:47:38;24.73;;;10.95;;
74658;SDS011;63186;51.204;6.536;2023-01-19T11:53:09;23.10;;;10.63;;
74658;SDS011;63186;51.204;6.536;2023-01-19T11:55:55;25.80;;;10.85;;
74658;SDS011;63186;51.204;6.536;2023-01-19T11:58:23;24.92;;;11.23;;
74658;SDS011;63186;51.204;6.536;2023-01-19T12:03:44;25.33;;;11.30;;
74658;SDS011;63186;51.204;6.536;2023-01-19T12:06:17;26.73;;;14.25;;
74658;SDS011;63186;51.204;6.536;2023-01-19T12:08:47;20.48;;;10.68;;
74658;SDS011;63186;51.204;6.536;2023-01-19T12:11:21;18.60;;;9.10;;
74658;SDS011;63186;51.204;6.536;2023-01-19T12:13:55;23.75;;;12.27;;
74658;SDS011;63186;51.204;6.536;2023-01-19T12:16:22;21.17;;;10.40;;
74658;SDS011;63186;51.204;6.536;2023-01-19T12:19:04;23.88;;;10.90;;
74658;SDS011;63186;51.204;6.536;2023-01-19T12:21:38;25.40;;;13.20;;
74658;SDS011;63186;51.204;6.536;2023-01-19T12:24:07;15.43;;;6.43;;
74658;SDS011;63186;51.204;6.536;2023-01-19T12:26:57;27.27;;;14.48;;
74658;SDS011;63186;51.204;6.536;2023-01-19T12:29:29;22.67;;;11.80;;
74658;SDS011;63186;51.204;6.536;2023-01-19T12:34:39;30.00;;;10.88;;
74658;SDS011;63186;51.204;6.536;2023-01-19T12:37:07;23.92;;;10.23;;
74658;SDS011;63186;51.204;6.536;2023-01-19T12:39:51;26.35;;;11.63;;
74658;SDS011;63186;51.204;6.536;2023-01-19T12:42:18;28.92;;;11.95;;
74658;SDS011;63186;51.204;6.536;2023-01-19T12:44:44;18.63;;;9.70;;
74658;SDS011;63186;51.204;6.536;2023-01-19T12:54:39;27.00;;;10.82;;
74658;SDS011;63186;51.204;6.536;2023-01-19T12:57:13;30.00;;;12.82;;
74658;SDS011;63186;51.204;6.536;2023-01-19T12:59:44;23.85;;;11.40;;
74658;SDS011;63186;51.204;6.536;2023-01-19T13:07:53;31.98;;;14.55;;
74658;SDS011;63186;51.204;6.536;2023-01-19T13:15:44;23.73;;;12.65;;
74658;SDS011;63186;51.204;6.536;2023-01-19T13:18:26;32.35;;;14.30;;
74658;SDS011;63186;51.204;6.536;2023-01-19T13:20:56;23.80;;;10.30;;
74658;SDS011;63186;51.204;6.536;2023-01-19T13:23:28;27.17;;;14.48;;
74658;SDS011;63186;51.204;6.536;2023-01-19T13:26:18;33.30;;;16.67;;
74658;SDS011;63186;51.204;6.536;2023-01-19T13:28:52;28.50;;;13.88;;
74658;SDS011;63186;51.204;6.536;2023-01-19T13:31:21;25.50;;;13.65;;
74658;SDS011;63186;51.204;6.536;2023-01-19T13:33:48;29.83;;;14.23;;
74658;SDS011;63186;51.204;6.536;2023-01-19T13:41:38;23.77;;;11.25;;
74658;SDS011;63186;51.204;6.536;2023-01-19T13:44:23;26.23;;;12.02;;
74658;SDS011;63186;51.204;6.536;2023-01-19T13:46:51;26.95;;;13.25;;
74658;SDS011;63186;51.204;6.536;2023-01-19T13:49:18;29.52;;;13.23;;
74658;SDS011;63186;51.204;6.536;2023-01-19T13:52:06;24.52;;;11.10;;
74658;SDS011;63186;51.204;6.536;2023-01-19T13:54:48;22.52;;;9.95;;
74658;SDS011;63186;51.204;6.536;2023-01-19T13:57:27;27.25;;;12.60;;
74658;SDS011;63186;51.204;6.536;2023-01-19T14:00:26;25.00;;;12.35;;
74658;SDS011;63186;51.204;6.536;2023-01-19T14:02:59;20.45;;;8.90;;
74658;SDS011;63186;51.204;6.536;2023-01-19T14:05:39;21.98;;;10.38;;
74658;SDS011;63186;51.204;6.536;2023-01-19T14:13:21;16.73;;;8.20;;
74658;SDS011;63186;51.204;6.536;2023-01-19T14:15:53;21.20;;;10.30;;
74658;SDS011;63186;51.204;6.536;2023-01-19T14:21:04;26.90;;;15.23;;
74658;SDS011;63186;51.204;6.536;2023-01-19T14:23:40;29.98;;;15.57;;
74658;SDS011;63186;51.204;6.536;2023-01-19T14:29:06;22.45;;;9.88;;
74658;SDS011;63186;51.204;6.536;2023-01-19T14:34:50;27.67;;;11.73;;
74658;SDS011;63186;51.204;6.536;2023-01-19T14:37:36;20.13;;;9.85;;
74658;SDS011;63186;51.204;6.536;2023-01-19T14:45:04;26.42;;;12.15;;
74658;SDS011;63186;51.204;6.536;2023-01-19T14:47:37;22.15;;;11.70;;
74658;SDS011;63186;51.204;6.536;2023-01-19T14:50:06;23.10;;;12.68;;
74658;SDS011;63186;51.204;6.536;2023-01-19T14:52:42;21.33;;;12.00;;
74658;SDS011;63186;51.204;6.536;2023-01-19T14:55:35;15.43;;;6.97;;
74658;SDS011;63186;51.204;6.536;2023-01-19T14:58:10;18.83;;;7.32;;
74658;SDS011;63186;51.204;6.536;2023-01-19T15:00:37;26.98;;;12.02;;
74658;SDS011;63186;51.204;6.536;2023-01-19T15:03:02;28.05;;;14.27;;
74658;SDS011;63186;51.204;6.536;2023-01-19T15:05:30;23.45;;;11.77;;
74658;SDS011;63186;51.204;6.536;2023-01-19T15:07:56;21.95;;;11.00;;
74658;SDS011;63186;51.204;6.536;2023-01-19T15:10:21;31.40;;;12.50;;
74658;SDS011;63186;51.204;6.536;2023-01-19T15:12:48;23.33;;;10.57;;
74658;SDS011;63186;51.204;6.536;2023-01-19T15:15:16;26.02;;;13.35;;
74658;SDS011;63186;51.204;6.536;2023-01-19T15:17:56;27.20;;;12.02;;
74658;SDS011;63186;51.204;6.536;2023-01-19T15:20:22;26.52;;;12.18;;
74658;SDS011;63186;51.204;6.536;2023-01-19T15:22:48;29.48;;;13.38;;
74658;SDS011;63186;51.204;6.536;2023-01-19T15:25:15;34.67;;;15.43;;
74658;SDS011;63186;51.204;6.536;2023-01-19T15:27:42;28.38;;;14.05;;
74658;SDS011;63186;51.204;6.536;2023-01-19T15:30:18;24.15;;;11.07;;
74658;SDS011;63186;51.204;6.536;2023-01-19T15:32:45;26.80;;;13.40;;
74658;SDS011;63186;51.204;6.536;2023-01-19T15:35:12;26.20;;;13.70;;
74658;SDS011;63186;51.204;6.536;2023-01-19T15:37:39;27.77;;;13.35;;
74658;SDS011;63186;51.204;6.536;2023-01-19T15:40:04;25.98;;;12.88;;
74658;SDS011;63186;51.204;6.536;2023-01-19T15:42:30;18.17;;;10.52;;
74658;SDS011;63186;51.204;6.536;2023-01-19T15:44:57;25.10;;;11.55;;
74658;SDS011;63186;51.204;6.536;2023-01-19T15:47:22;22.75;;;11.48;;
74658;SDS011;63186;51.204;6.536;2023-01-19T15:49:48;28.37;;;13.23;;
74658;SDS011;63186;51.204;6.536;2023-01-19T15:52:13;27.63;;;11.87;;
74658;SDS011;63186;51.204;6.536;2023-01-19T15:54:38;23.63;;;13.37;;
74658;SDS011;63186;51.204;6.536;2023-01-19T15:57:04;27.57;;;13.43;;
74658;SDS011;63186;51.204;6.536;2023-01-19T15:59:29;23.20;;;11.85;;
74658;SDS011;63186;51.204;6.536;2023-01-19T16:01:54;20.80;;;11.00;;
74658;SDS011;63186;51.204;6.536;2023-01-19T16:04:20;20.30;;;11.60;;
74658;SDS011;63186;51.204;6.536;2023-01-19T16:06:45;22.23;;;12.50;;
74658;SDS011;63186;51.204;6.536;2023-01-19T16:09:10;26.83;;;12.80;;
74658;SDS011;63186;51.204;6.536;2023-01-19T16:11:40;28.02;;;13.35;;
74658;SDS011;63186;51.204;6.536;2023-01-19T16:14:05;25.83;;;13.93;;